Time;durP1;ratioP1;P1;durP2;ratioP2;P2;SDS_P1;SDS_P2;PMS_P1;PMS_P2;Temp;Humidity;BMP_temperature;BMP_pressure;BME280_temperature;BME280_humidity;BME280_pressure;Samples;Min_cycle;Max_cycle;Signal;HPM_P1;HPM_P2
2022/05/26 00:02:18;;;;;;;5.23;4.93;;;13.60;99.90;;;;;;4984434;28;20271;-77
2022/05/26 00:04:45;;;;;;;5.57;5.07;;;13.50;99.90;;;;;;4989957;28;20271;-76
2022/05/26 00:07:12;;;;;;;5.47;5.07;;;13.40;99.90;;;;;;4988292;28;20204;-76
2022/05/26 00:09:38;;;;;;;5.80;5.30;;;13.40;99.90;;;;;;4988739;28;20247;-75
2022/05/26 00:12:06;;;;;;;5.67;5.17;;;13.40;99.90;;;;;;4988849;28;20205;-76
2022/05/26 00:14:33;;;;;;;5.40;5.00;;;13.30;99.90;;;;;;4991911;28;20304;-76
2022/05/26 00:17:01;;;;;;;5.20;4.90;;;13.30;99.90;;;;;;4988150;28;20204;-76
2022/05/26 00:19:29;;;;;;;5.23;4.83;;;13.20;99.90;;;;;;4986945;28;20299;-77
2022/05/26 00:21:56;;;;;;;5.10;4.77;;;13.20;99.90;;;;;;4984636;28;20259;-77
2022/05/26 00:24:23;;;;;;;5.03;4.63;;;13.20;99.90;;;;;;4984605;28;20229;-77
2022/05/26 00:26:50;;;;;;;5.37;4.93;;;13.20;99.90;;;;;;4987795;28;20259;-76
2022/05/26 00:29:17;;;;;;;4.90;4.60;;;13.20;99.90;;;;;;4988840;28;20196;-76
2022/05/26 00:31:44;;;;;;;5.17;4.70;;;13.20;99.90;;;;;;4991831;28;20655;-76
2022/05/26 00:34:11;;;;;;;5.27;4.87;;;13.10;99.90;;;;;;4989117;28;20282;-76
2022/05/26 00:36:41;;;;;;;5.63;5.13;;;13.10;99.90;;;;;;4984783;28;20288;-76
2022/05/26 00:39:11;;;;;;;5.40;4.90;;;13.10;99.90;;;;;;4986962;28;20595;-75
2022/05/26 00:41:43;;;;;;;5.40;4.90;;;13.10;99.90;;;;;;4976814;28;20227;-75
2022/05/26 00:44:11;;;;;;;5.43;5.00;;;13.10;99.90;;;;;;4983791;28;20742;-76
2022/05/26 00:46:43;;;;;;;5.40;5.00;;;13.10;99.90;;;;;;4987718;28;20204;-76
2022/05/26 00:49:16;;;;;;;5.60;5.10;;;13.10;99.90;;;;;;4988090;28;20220;-75
2022/05/26 00:51:45;;;;;;;5.10;4.80;;;13.00;99.90;;;;;;4984252;28;20243;-76
2022/05/26 00:54:18;;;;;;;5.20;4.90;;;13.00;99.90;;;;;;4989248;28;20348;-77
2022/05/26 00:56:50;;;;;;;5.33;4.87;;;13.00;99.90;;;;;;4987336;28;20712;-75
2022/05/26 00:59:23;;;;;;;5.73;5.10;;;13.00;99.90;;;;;;4985527;28;20214;-76
2022/05/26 01:01:50;;;;;;;5.20;4.90;;;13.00;99.90;;;;;;4977881;28;20211;-76
2022/05/26 01:04:20;;;;;;;5.30;4.97;;;13.00;99.90;;;;;;4979570;28;20225;-76
2022/05/26 01:06:51;;;;;;;5.10;4.77;;;13.10;99.90;;;;;;4985849;28;20767;-75
2022/05/26 01:09:20;;;;;;;5.20;4.90;;;13.10;99.90;;;;;;4983950;28;20201;-77
2022/05/26 01:11:47;;;;;;;5.30;4.90;;;13.10;99.90;;;;;;4989225;28;20197;-76
2022/05/26 01:14:19;;;;;;;5.37;4.97;;;13.10;99.90;;;;;;4987781;28;20223;-76
2022/05/26 01:17:00;;;;;;;5.00;4.60;;;13.10;99.90;;;;;;4985445;28;20591;-76
2022/05/26 01:20:17;;;;;;;5.13;4.83;;;13.00;99.90;;;;;;4985003;28;20217;-76
2022/05/26 01:23:17;;;;;;;5.10;4.80;;;13.00;99.90;;;;;;4959322;28;20279;-76
2022/05/26 01:26:09;;;;;;;5.00;4.70;;;13.00;99.90;;;;;;4984048;28;20673;-76
2022/05/26 01:28:58;;;;;;;5.37;5.07;;;12.90;99.90;;;;;;4989253;28;20484;-77
2022/05/26 01:31:37;;;;;;;5.40;5.00;;;12.90;99.90;;;;;;4986159;28;20247;-77
2022/05/26 01:34:11;;;;;;;5.30;5.00;;;12.90;99.90;;;;;;5033327;23;20235;-75
2022/05/26 01:36:47;;;;;;;5.57;5.17;;;12.80;99.90;;;;;;5023055;28;20202;-76
2022/05/26 01:39:22;;;;;;;5.50;5.10;;;12.80;99.90;;;;;;5028732;28;20253;-76
2022/05/26 01:42:06;;;;;;;5.23;4.80;;;12.80;99.90;;;;;;5033901;28;20199;-76
2022/05/26 01:44:43;;;;;;;5.20;4.90;;;12.70;99.90;;;;;;5033390;28;20238;-76
2022/05/26 01:47:28;;;;;;;5.27;4.83;;;12.70;99.90;;;;;;5018362;28;20298;-76
2022/05/26 01:50:01;;;;;;;5.00;4.70;;;12.70;99.90;;;;;;5018393;28;20195;-76
2022/05/26 01:52:35;;;;;;;5.20;4.80;;;12.60;99.90;;;;;;5020610;28;20201;-76
2022/05/26 01:55:08;;;;;;;5.37;4.97;;;12.60;99.90;;;;;;5013801;28;20216;-76
2022/05/26 01:57:39;;;;;;;5.30;4.90;;;12.60;99.90;;;;;;5021298;28;20296;-76
2022/05/26 02:00:10;;;;;;;5.30;4.90;;;12.60;99.90;;;;;;5008027;28;20220;-76
2022/05/26 02:02:42;;;;;;;5.43;5.03;;;12.50;99.90;;;;;;5030341;28;20206;-76
2022/05/26 02:05:13;;;;;;;5.53;5.13;;;12.50;99.90;;;;;;5022005;28;20224;-75
2022/05/26 02:07:44;;;;;;;5.40;5.00;;;12.40;99.90;;;;;;5014528;28;20648;-76
2022/05/26 02:10:16;;;;;;;5.20;4.90;;;12.40;99.90;;;;;;5021612;28;20202;-77
2022/05/26 02:12:49;;;;;;;5.30;4.90;;;12.30;99.90;;;;;;5023870;28;20189;-76
2022/05/26 02:15:19;;;;;;;5.33;4.93;;;12.20;99.90;;;;;;5022454;28;20222;-76
2022/05/26 02:17:51;;;;;;;5.60;5.20;;;12.20;99.90;;;;;;5023341;28;20196;-76
2022/05/26 02:20:26;;;;;;;5.57;5.07;;;12.10;99.90;;;;;;5023297;28;20232;-76
2022/05/26 02:22:58;;;;;;;5.43;5.10;;;12.10;99.90;;;;;;5020433;28;20689;-77
2022/05/26 02:25:26;;;;;;;6.13;5.60;;;12.10;99.90;;;;;;5017187;28;20704;-77
2022/05/26 02:27:55;;;;;;;6.23;5.63;;;12.10;99.90;;;;;;5024853;28;20199;-76
2022/05/26 02:30:23;;;;;;;6.80;6.10;;;12.10;99.90;;;;;;5020106;28;20736;-76
2022/05/26 02:32:53;;;;;;;6.73;6.13;;;12.10;99.90;;;;;;5022697;28;20192;-76
2022/05/26 02:35:23;;;;;;;6.77;6.17;;;12.20;99.90;;;;;;5022577;28;20238;-76
2022/05/26 02:37:53;;;;;;;6.80;6.20;;;12.10;99.90;;;;;;5015046;28;20213;-75
2022/05/26 02:40:21;;;;;;;7.23;6.53;;;12.10;99.90;;;;;;5022472;28;20669;-76
2022/05/26 02:42:50;;;;;;;7.47;6.77;;;12.10;99.90;;;;;;5018590;28;20224;-77
2022/05/26 02:45:26;;;;;;;7.67;6.97;;;12.00;99.90;;;;;;5023656;28;20224;-76
2022/05/26 02:48:02;;;;;;;7.37;6.67;;;12.00;99.90;;;;;;5015556;28;20200;-77
2022/05/26 02:50:42;;;;;;;6.97;6.37;;;12.00;99.90;;;;;;5022682;28;20216;-76
2022/05/26 02:53:18;;;;;;;7.97;7.17;;;11.90;99.90;;;;;;5022514;28;20200;-76
2022/05/26 02:55:54;;;;;;;7.37;6.67;;;11.90;99.90;;;;;;5011729;28;20615;-76
2022/05/26 02:58:31;;;;;;;7.30;6.70;;;11.90;99.90;;;;;;5027259;28;20218;-76
2022/05/26 03:01:04;;;;;;;7.23;6.63;;;11.90;99.90;;;;;;5015463;28;20201;-76
2022/05/26 03:03:37;;;;;;;8.07;6.80;;;11.90;99.90;;;;;;5028141;28;20320;-76
2022/05/26 03:06:09;;;;;;;7.03;6.43;;;11.90;99.90;;;;;;5020405;28;20192;-76
2022/05/26 03:08:39;;;;;;;6.83;6.27;;;11.80;99.90;;;;;;5025409;28;20232;-76
2022/05/26 03:11:09;;;;;;;6.57;6.07;;;11.90;99.90;;;;;;5022984;28;20232;-77
2022/05/26 03:13:37;;;;;;;10.77;6.00;;;11.90;99.90;;;;;;5024463;28;20283;-77
2022/05/26 03:16:04;;;;;;;6.00;5.60;;;11.80;99.90;;;;;;5023969;28;20200;-76
2022/05/26 03:18:32;;;;;;;5.97;5.47;;;11.80;99.90;;;;;;5023299;28;20204;-76
2022/05/26 03:21:00;;;;;;;6.23;5.83;;;11.80;99.90;;;;;;5024818;28;20248;-77
2022/05/26 03:23:27;;;;;;;6.17;5.67;;;11.70;99.90;;;;;;5021440;28;20241;-76
2022/05/26 03:25:56;;;;;;;5.50;5.20;;;11.70;99.90;;;;;;5015827;28;20206;-76
2022/05/26 03:28:23;;;;;;;5.93;5.53;;;11.70;99.90;;;;;;5016874;28;20212;-76
2022/05/26 03:30:50;;;;;;;6.10;5.70;;;11.60;99.90;;;;;;5011355;28;20421;-76
2022/05/26 03:33:17;;;;;;;5.77;5.37;;;11.60;99.90;;;;;;5018749;28;20204;-76
2022/05/26 03:41:16;;;;;;;5.53;5.13;;;11.60;99.90;;;;;;5022904;28;20195;-76
2022/05/26 03:43:46;;;;;;;6.00;5.50;;;11.60;99.90;;;;;;5018336;28;20229;-77
2022/05/26 03:46:14;;;;;;;5.47;5.17;;;11.60;99.90;;;;;;5016503;28;20198;-76
2022/05/26 03:48:41;;;;;;;5.57;5.20;;;11.70;99.90;;;;;;5020091;28;20198;-76
2022/05/26 03:51:10;;;;;;;6.43;5.47;;;11.70;99.90;;;;;;5019615;28;20299;-76
2022/05/26 03:53:37;;;;;;;5.63;5.30;;;11.70;99.90;;;;;;5019180;28;20594;-75
2022/05/26 03:56:05;;;;;;;5.90;5.50;;;11.80;99.90;;;;;;5019172;28;20205;-76
2022/05/26 03:58:33;;;;;;;5.50;5.10;;;11.80;99.90;;;;;;5020135;28;20197;-76
2022/05/26 04:01:02;;;;;;;5.87;5.50;;;11.90;99.90;;;;;;5021315;28;20205;-77
2022/05/26 04:03:29;;;;;;;5.50;5.10;;;11.90;99.90;;;;;;5018255;28;20233;-77
2022/05/26 04:05:56;;;;;;;5.53;5.03;;;12.00;99.90;;;;;;5020194;28;20235;-79
2022/05/26 04:08:25;;;;;;;5.70;5.30;;;12.10;99.90;;;;;;5021984;28;20207;-79
2022/05/26 04:10:52;;;;;;;5.70;5.30;;;12.10;99.90;;;;;;5014015;28;20213;-79
2022/05/26 04:13:19;;;;;;;6.00;5.47;;;12.20;99.90;;;;;;5020659;28;20205;-77
2022/05/26 04:15:46;;;;;;;5.13;4.87;;;12.20;99.90;;;;;;5016120;28;20653;-78
2022/05/26 04:18:13;;;;;;;5.40;5.03;;;12.20;99.90;;;;;;5022941;28;20206;-78
2022/05/26 04:20:40;;;;;;;6.53;6.13;;;12.20;99.90;;;;;;5014403;28;20202;-78
2022/05/26 04:23:08;;;;;;;5.70;5.30;;;12.30;99.90;;;;;;5018150;28;20212;-79
2022/05/26 04:25:36;;;;;;;5.53;5.23;;;12.30;99.90;;;;;;5021549;28;20248;-78
2022/05/26 04:28:03;;;;;;;5.70;5.30;;;12.30;99.90;;;;;;5020207;28;20197;-78
2022/05/26 04:30:30;;;;;;;4.17;3.87;;;12.40;99.90;;;;;;5014930;28;20218;-80
2022/05/26 04:32:57;;;;;;;3.90;3.60;;;12.50;99.90;;;;;;5017425;28;20203;-77
2022/05/26 04:35:25;;;;;;;2.93;2.80;;;12.60;99.90;;;;;;5021061;28;20255;-77
2022/05/26 04:37:52;;;;;;;6.10;5.60;;;12.60;99.90;;;;;;5021126;28;20667;-77
2022/05/26 04:40:19;;;;;;;5.90;5.50;;;12.70;99.90;;;;;;5017742;28;20715;-76
2022/05/26 04:42:47;;;;;;;5.40;5.10;;;12.80;99.90;;;;;;5018125;28;20202;-76
2022/05/26 04:45:15;;;;;;;5.70;5.20;;;12.90;99.90;;;;;;5019488;28;20246;-77
2022/05/26 04:47:42;;;;;;;5.70;5.30;;;13.10;99.90;;;;;;5019705;28;20200;-77
2022/05/26 04:50:11;;;;;;;5.50;5.10;;;13.20;99.90;;;;;;5019513;28;20278;-77
2022/05/26 04:52:37;;;;;;;5.40;5.10;;;13.30;99.90;;;;;;5018555;28;20203;-77
2022/05/26 04:55:06;;;;;;;5.30;4.90;;;13.40;99.90;;;;;;5022367;28;20254;-77
2022/05/26 04:57:33;;;;;;;5.30;5.00;;;13.50;99.90;;;;;;5018167;28;20199;-77
2022/05/26 05:00:01;;;;;;;5.23;4.93;;;13.60;99.90;;;;;;5018741;28;20201;-76
2022/05/26 05:02:28;;;;;;;5.40;5.00;;;13.70;99.90;;;;;;5021841;28;20203;-75
2022/05/26 05:04:55;;;;;;;5.20;4.90;;;13.80;99.90;;;;;;5018858;28;20208;-77
2022/05/26 05:07:22;;;;;;;4.90;4.60;;;13.90;99.90;;;;;;5020427;28;20604;-77
2022/05/26 05:09:49;;;;;;;4.90;4.60;;;13.90;99.90;;;;;;5016719;28;20688;-77
2022/05/26 05:12:20;;;;;;;4.53;4.33;;;14.10;99.90;;;;;;5014325;28;20737;-77
2022/05/26 05:14:48;;;;;;;4.40;4.20;;;14.20;99.90;;;;;;5022008;28;20216;-77
2022/05/26 05:17:19;;;;;;;4.30;4.10;;;14.30;99.90;;;;;;5017157;28;20661;-77
2022/05/26 05:19:47;;;;;;;4.30;3.90;;;14.50;99.90;;;;;;5019696;28;20202;-77
2022/05/26 05:22:19;;;;;;;3.90;3.70;;;14.70;99.90;;;;;;5018688;28;20196;-77
2022/05/26 05:24:51;;;;;;;3.80;3.60;;;14.90;99.90;;;;;;5018650;28;20222;-77
2022/05/26 05:27:23;;;;;;;3.70;3.50;;;15.00;99.90;;;;;;5019899;28;20224;-77
2022/05/26 05:29:53;;;;;;;3.30;3.10;;;15.20;99.90;;;;;;5018482;28;20649;-76
2022/05/26 05:32:25;;;;;;;4.07;3.50;;;15.30;99.90;;;;;;5021840;28;20196;-77
2022/05/26 05:34:56;;;;;;;3.50;3.30;;;15.50;99.90;;;;;;5018803;28;20248;-76
2022/05/26 05:37:23;;;;;;;2.20;2.10;;;15.80;99.90;;;;;;5020090;28;20213;-77
2022/05/26 05:39:50;;;;;;;2.90;2.60;;;16.10;99.90;;;;;;5022078;28;20200;-77
2022/05/26 05:42:17;;;;;;;2.20;2.00;;;16.40;99.90;;;;;;5024872;28;20211;-78
2022/05/26 05:44:45;;;;;;;2.10;2.00;;;16.90;99.90;;;;;;5022498;28;20469;-78
2022/05/26 05:47:11;;;;;;;2.90;2.80;;;17.50;99.90;;;;;;5022618;28;20200;-76
2022/05/26 05:49:40;;;;;;;1.70;1.60;;;18.40;99.90;;;;;;5017961;28;20206;-77
2022/05/26 05:52:10;;;;;;;2.73;2.53;;;19.10;99.90;;;;;;5025309;28;20197;-76
2022/05/26 05:54:38;;;;;;;4.23;2.70;;;19.90;99.90;;;;;;5013776;28;20227;-76
2022/05/26 05:57:06;;;;;;;1.73;1.63;;;20.40;99.90;;;;;;5024039;28;20207;-78
2022/05/26 05:59:33;;;;;;;1.70;1.60;;;20.80;99.90;;;;;;5025384;28;20207;-78
2022/05/26 06:02:00;;;;;;;3.03;1.47;;;20.90;99.90;;;;;;5026263;28;20673;-77
2022/05/26 06:04:27;;;;;;;1.63;1.53;;;21.00;99.90;;;;;;5023930;28;20224;-78
2022/05/26 06:06:56;;;;;;;1.80;1.70;;;21.20;99.90;;;;;;5023862;28;20574;-77
2022/05/26 06:09:23;;;;;;;3.80;3.50;;;21.40;99.90;;;;;;5023314;28;20217;-78
2022/05/26 06:11:50;;;;;;;3.70;3.40;;;21.50;99.90;;;;;;5022580;28;20713;-77
2022/05/26 06:14:17;;;;;;;1.73;1.63;;;21.30;99.90;;;;;;5023780;28;20235;-77
2022/05/26 06:16:46;;;;;;;2.17;1.90;;;21.00;99.90;;;;;;5019934;28;20299;-77
2022/05/26 06:19:13;;;;;;;2.63;2.43;;;21.00;99.90;;;;;;5018565;28;20216;-77
2022/05/26 06:21:41;;;;;;;3.33;3.13;;;20.80;99.90;;;;;;5023554;28;20204;-77
2022/05/26 06:24:10;;;;;;;3.27;3.07;;;21.10;99.90;;;;;;5021346;28;20327;-76
2022/05/26 06:26:37;;;;;;;3.70;3.40;;;21.60;99.90;;;;;;5013818;28;20673;-77
2022/05/26 06:40:31;;;;;;;2.77;2.50;;;23.20;99.90;;;;;;5018576;28;20646;-80
2022/05/26 06:42:58;;;;;;;3.10;2.90;;;23.50;99.90;;;;;;5021297;28;20262;-81
2022/05/26 06:45:25;;;;;;;2.90;2.80;;;23.50;99.90;;;;;;5023253;28;20835;-78
2022/05/26 06:47:52;;;;;;;3.87;3.57;;;23.80;99.90;;;;;;5021842;28;20657;-80
2022/05/26 06:50:19;;;;;;;4.57;3.93;;;23.90;99.90;;;;;;5013262;28;20192;-81
2022/05/26 06:52:47;;;;;;;5.10;4.70;;;24.10;99.90;;;;;;5009247;28;20207;-80
2022/05/26 06:55:13;;;;;;;3.97;3.73;;;24.20;99.90;;;;;;5012910;28;20701;-77
2022/05/26 06:57:42;;;;;;;2.93;2.73;;;24.20;99.90;;;;;;5024523;28;20200;-77
2022/05/26 07:00:12;;;;;;;4.63;4.33;;;24.30;99.50;;;;;;5024408;28;20286;-77
2022/05/26 07:02:39;;;;;;;3.17;2.97;;;24.50;99.10;;;;;;5014563;28;20338;-77
2022/05/26 07:05:07;;;;;;;1.80;1.60;;;24.60;98.20;;;;;;5024208;28;20727;-77
2022/05/26 07:07:35;;;;;;;4.03;3.83;;;24.70;98.20;;;;;;5022901;28;20665;-80
2022/05/26 07:10:04;;;;;;;2.00;1.87;;;24.80;97.80;;;;;;5024310;28;20269;-79
2022/05/26 07:12:31;;;;;;;2.20;1.40;;;25.00;98.10;;;;;;5024888;28;20196;-77
2022/05/26 07:14:59;;;;;;;3.60;3.20;;;25.10;96.80;;;;;;5024152;28;20226;-78
2022/05/26 07:17:26;;;;;;;2.37;2.13;;;25.10;96.70;;;;;;5023151;28;20273;-79
2022/05/26 07:19:53;;;;;;;1.73;1.43;;;25.30;97.10;;;;;;5026720;28;20207;-80
2022/05/26 07:22:20;;;;;;;2.73;2.53;;;25.50;96.60;;;;;;5022204;28;20219;-81
2022/05/26 07:24:49;;;;;;;3.63;3.13;;;25.60;97.00;;;;;;5021480;28;20220;-80
2022/05/26 07:27:17;;;;;;;2.87;2.77;;;25.60;95.60;;;;;;5023513;28;20251;-80
2022/05/26 07:29:44;;;;;;;2.30;2.10;;;25.80;96.40;;;;;;5024200;28;20200;-78
2022/05/26 07:32:12;;;;;;;2.20;2.10;;;26.00;95.60;;;;;;5015521;28;20207;-78
2022/05/26 07:34:39;;;;;;;2.20;2.07;;;25.90;94.70;;;;;;5013005;28;20234;-78
2022/05/26 07:42:37;;;;;;;2.97;1.83;;;26.00;94.90;;;;;;5023017;28;20306;-79
2022/05/26 07:45:07;;;;;;;1.87;1.77;;;26.00;94.70;;;;;;5025350;28;20234;-78
2022/05/26 07:47:36;;;;;;;2.50;2.30;;;26.00;94.60;;;;;;5020335;28;20216;-79
2022/05/26 07:50:04;;;;;;;1.50;1.40;;;26.00;94.40;;;;;;5025098;28;20684;-78
2022/05/26 07:52:31;;;;;;;3.20;3.00;;;26.10;95.00;;;;;;5020019;28;20208;-80
2022/05/26 07:54:58;;;;;;;3.97;2.67;;;26.20;94.70;;;;;;5025075;28;20223;-80
2022/05/26 07:57:28;;;;;;;3.10;2.90;;;26.30;94.80;;;;;;5017198;28;20200;-79
2022/05/26 07:59:55;;;;;;;3.43;3.20;;;26.50;94.20;;;;;;5015387;28;20637;-78
2022/05/26 08:02:22;;;;;;;4.20;3.90;;;26.90;94.20;;;;;;5013959;28;20216;-79
2022/05/26 08:04:51;;;;;;;3.93;3.53;;;27.10;93.60;;;;;;5015127;28;20223;-80
2022/05/26 08:07:18;;;;;;;2.90;2.70;;;26.90;93.20;;;;;;5022000;28;20205;-80
2022/05/26 08:09:45;;;;;;;3.20;3.00;;;26.90;93.50;;;;;;5023215;28;20200;-80
2022/05/26 08:12:14;;;;;;;1.50;1.40;;;26.50;93.30;;;;;;5020199;28;20653;-79
2022/05/26 08:14:42;;;;;;;2.93;2.57;;;26.30;93.10;;;;;;5022817;28;20696;-80
2022/05/26 08:17:10;;;;;;;1.50;1.20;;;26.00;94.20;;;;;;5021463;28;20207;-80
2022/05/26 08:19:38;;;;;;;4.30;2.80;;;25.60;93.80;;;;;;5016903;28;20204;-80
2022/05/26 08:22:07;;;;;;;1.37;1.27;;;25.30;94.10;;;;;;5009283;28;20252;-79
2022/05/26 08:24:34;;;;;;;1.57;1.47;;;24.90;94.80;;;;;;5022833;28;20227;-80
2022/05/26 08:27:01;;;;;;;3.67;3.47;;;24.70;95.70;;;;;;5022158;28;20195;-79
2022/05/26 08:29:28;;;;;;;4.03;3.83;;;24.40;95.80;;;;;;5015137;28;20214;-79
2022/05/26 08:31:55;;;;;;;3.80;3.40;;;24.20;95.30;;;;;;5010369;28;20197;-78
2022/05/26 08:34:22;;;;;;;2.30;2.10;;;24.00;95.70;;;;;;5022075;28;20224;-79
2022/05/26 08:36:48;;;;;;;3.23;2.93;;;23.90;95.60;;;;;;5014533;28;20297;-77
2022/05/26 08:39:17;;;;;;;2.63;1.20;;;23.70;96.40;;;;;;5010851;28;20255;-78
2022/05/26 08:41:49;;;;;;;2.70;2.50;;;23.70;96.30;;;;;;5022207;28;20353;-77
2022/05/26 08:44:22;;;;;;;1.70;1.60;;;23.70;96.60;;;;;;5017006;28;20221;-77
2022/05/26 08:46:54;;;;;;;1.40;1.30;;;23.80;95.80;;;;;;5022266;28;20718;-78
2022/05/26 08:49:29;;;;;;;4.83;3.50;;;24.40;96.50;;;;;;5011772;28;20197;-78
2022/05/26 08:52:01;;;;;;;4.03;3.57;;;25.40;95.70;;;;;;5011129;28;20195;-78
2022/05/26 08:54:34;;;;;;;1.30;1.20;;;26.40;94.70;;;;;;5028466;28;20243;-79
2022/05/26 08:57:03;;;;;;;3.37;3.07;;;27.10;93.70;;;;;;5015509;28;20731;-79
2022/05/26 08:59:38;;;;;;;2.50;2.33;;;27.30;92.00;;;;;;5031143;28;20204;-78
2022/05/26 09:02:06;;;;;;;2.57;2.37;;;26.50;92.70;;;;;;5017514;28;20238;-79
2022/05/26 09:04:33;;;;;;;2.87;2.73;;;26.00;93.20;;;;;;5029698;28;20234;-79
2022/05/26 09:13:02;;;;;;;4.30;2.53;;;25.20;93.90;;;;;;5016355;28;20201;-80
2022/05/26 09:15:33;;;;;;;1.85;1.75;;;24.80;94.10;;;;;;5026115;28;20885;-79
2022/05/26 09:18:09;;;;;;;3.23;3.13;;;24.80;95.30;;;;;;5027959;28;20290;-79
2022/05/26 09:20:40;;;;;;;4.33;3.30;;;24.70;95.10;;;;;;5028999;28;20191;-79
2022/05/26 09:23:13;;;;;;;1.10;1.10;;;24.80;94.80;;;;;;5021897;28;20239;-79
2022/05/26 09:25:46;;;;;;;2.10;1.20;;;24.70;95.00;;;;;;5020672;28;20299;-79
2022/05/26 09:28:16;;;;;;;2.60;2.40;;;24.70;95.10;;;;;;5021811;28;20578;-79
2022/05/26 09:30:44;;;;;;;1.40;1.30;;;24.70;95.50;;;;;;5018489;28;20200;-79
2022/05/26 09:33:19;;;;;;;1.43;1.40;;;24.70;94.60;;;;;;5030753;28;20203;-79
2022/05/26 09:35:47;;;;;;;1.20;1.20;;;24.60;94.80;;;;;;5016904;28;20199;-80
2022/05/26 09:38:19;;;;;;;1.30;1.20;;;24.50;95.20;;;;;;5026866;28;20227;-79
2022/05/26 09:40:48;;;;;;;2.23;1.30;;;24.80;95.50;;;;;;5019905;28;20200;-78
2022/05/26 09:43:26;;;;;;;1.90;1.37;;;25.10;94.60;;;;;;5028289;28;20653;-78
2022/05/26 09:45:55;;;;;;;1.27;1.23;;;25.30;94.80;;;;;;5018731;28;20204;-78
2022/05/26 09:48:29;;;;;;;1.80;1.70;;;25.20;94.10;;;;;;5024632;28;20279;-78
2022/05/26 09:51:08;;;;;;;1.17;1.17;;;25.00;94.90;;;;;;5023176;28;20259;-78
2022/05/26 09:53:38;;;;;;;2.60;1.63;;;24.80;94.30;;;;;;5020961;28;20230;-77
2022/05/26 09:56:07;;;;;;;2.63;1.40;;;24.70;94.20;;;;;;5025444;28;20203;-80
2022/05/26 09:58:39;;;;;;;3.40;3.10;;;24.50;95.00;;;;;;4996683;28;20280;-79
2022/05/26 10:01:10;;;;;;;3.13;2.93;;;24.50;95.40;;;;;;4994515;28;20212;-79
2022/05/26 10:03:54;;;;;;;4.07;3.80;;;24.50;95.90;;;;;;5013266;28;20225;-80
2022/05/26 10:06:29;;;;;;;3.87;3.57;;;24.60;96.40;;;;;;5021169;28;20238;-78
2022/05/26 10:09:19;;;;;;;4.40;4.10;;;24.60;96.50;;;;;;5003313;28;20281;-78
2022/05/26 10:12:01;;;;;;;4.40;4.20;;;24.30;95.70;;;;;;5021536;28;20204;-81
2022/05/26 10:14:50;;;;;;;2.30;2.10;;;24.10;96.80;;;;;;5006828;28;20220;-78
2022/05/26 10:17:30;;;;;;;4.90;4.50;;;24.10;97.10;;;;;;5020259;28;20200;-79
2022/05/26 10:20:11;;;;;;;4.53;4.23;;;23.90;96.60;;;;;;5025028;28;20755;-77
2022/05/26 10:22:47;;;;;;;4.00;3.70;;;23.80;96.80;;;;;;5010734;28;20581;-79
2022/05/26 10:25:32;;;;;;;1.43;1.33;;;24.10;97.90;;;;;;5013060;28;20239;-77
2022/05/26 10:28:14;;;;;;;2.35;1.90;;;24.20;97.10;;;;;;5030217;28;20491;-78
2022/05/26 10:30:52;;;;;;;2.13;1.90;;;24.10;96.70;;;;;;5031667;28;20203;-78
2022/05/26 10:33:37;;;;;;;1.87;1.60;;;24.00;96.80;;;;;;5032659;28;20279;-78
2022/05/26 10:36:15;;;;;;;3.20;2.00;;;24.00;96.70;;;;;;5033178;28;20210;-78
2022/05/26 10:39:04;;;;;;;2.60;1.70;;;24.00;98.30;;;;;;5020956;28;20498;-78
2022/05/26 10:41:35;;;;;;;1.80;1.50;;;24.10;97.00;;;;;;5026439;28;20239;-78
2022/05/26 10:44:11;;;;;;;1.47;1.37;;;24.20;97.30;;;;;;5025900;28;20308;-78
2022/05/26 10:46:42;;;;;;;1.40;1.30;;;24.30;96.80;;;;;;5011435;28;20449;-78
2022/05/26 10:49:14;;;;;;;1.10;1.10;;;24.30;96.20;;;;;;5024119;28;20530;-78
2022/05/26 10:51:44;;;;;;;1.20;1.10;;;24.40;96.60;;;;;;5012655;28;20226;-78
2022/05/26 10:54:15;;;;;;;2.20;1.83;;;24.60;97.20;;;;;;5024713;28;20216;-78
2022/05/26 10:56:47;;;;;;;1.10;1.10;;;24.60;97.30;;;;;;5027556;28;20201;-77
2022/05/26 10:59:22;;;;;;;3.40;3.20;;;24.40;95.60;;;;;;5011964;28;20223;-78
2022/05/26 11:01:55;;;;;;;4.17;3.87;;;24.10;96.80;;;;;;5027333;28;20211;-78
2022/05/26 11:04:30;;;;;;;3.30;3.00;;;23.90;96.40;;;;;;5019969;28;20227;-78
2022/05/26 11:07:02;;;;;;;1.93;1.50;;;23.60;97.10;;;;;;5025111;28;20238;-78
2022/05/26 11:09:35;;;;;;;2.37;1.70;;;23.50;97.10;;;;;;5024199;28;20200;-78
2022/05/26 11:12:07;;;;;;;3.33;3.13;;;23.40;96.90;;;;;;5024643;28;20214;-79
2022/05/26 11:17:38;;;;;;;1.40;1.30;;;23.10;97.20;;;;;;5029250;28;20200;-79
2022/05/26 11:20:09;;;;;;;2.30;2.10;;;23.20;96.90;;;;;;5028319;28;20582;-78
2022/05/26 11:22:36;;;;;;;4.03;3.83;;;23.00;97.30;;;;;;5012252;28;20220;-77
2022/05/26 11:25:04;;;;;;;3.23;3.03;;;23.00;97.60;;;;;;5015360;28;20224;-77
2022/05/26 11:27:35;;;;;;;4.03;3.73;;;23.00;98.30;;;;;;5015958;28;20208;-76
2022/05/26 11:30:07;;;;;;;1.57;1.47;;;23.00;97.80;;;;;;5024397;28;20215;-77
2022/05/26 11:38:33;;;;;;;2.63;2.27;;;22.70;98.10;;;;;;4982972;28;20200;-76
2022/05/26 11:41:05;;;;;;;4.13;3.87;;;22.70;98.40;;;;;;4988625;28;20311;-76
2022/05/26 11:43:40;;;;;;;4.37;4.07;;;22.80;98.60;;;;;;5016103;28;20224;-77
2022/05/26 11:46:10;;;;;;;4.87;4.47;;;22.80;98.30;;;;;;5027571;28;20229;-77
2022/05/26 11:48:46;;;;;;;4.17;3.97;;;22.80;97.50;;;;;;5014522;28;20200;-76
2022/05/26 11:51:38;;;;;;;4.03;3.80;;;23.00;98.20;;;;;;5019880;28;20202;-76
2022/05/26 11:54:07;;;;;;;3.90;3.60;;;23.10;98.50;;;;;;5009670;28;20223;-76
2022/05/26 11:56:42;;;;;;;1.70;1.30;;;23.50;98.10;;;;;;5023073;28;20669;-76
2022/05/26 11:59:41;;;;;;;3.50;3.20;;;23.60;97.70;;;;;;5022379;28;20200;-77
2022/05/26 12:02:39;;;;;;;2.73;1.63;;;23.60;97.70;;;;;;5014813;28;20212;-76
2022/05/26 12:05:47;;;;;;;2.03;1.50;;;23.40;97.50;;;;;;5023057;28;20275;-77
2022/05/26 12:08:30;;;;;;;2.43;1.60;;;23.30;98.40;;;;;;5016931;28;20233;-76
2022/05/26 12:11:00;;;;;;;1.33;1.23;;;23.30;97.80;;;;;;5022365;28;20224;-77
2022/05/26 12:13:29;;;;;;;2.93;1.50;;;23.50;98.20;;;;;;5021079;28;20221;-76
2022/05/26 12:16:19;;;;;;;1.90;1.60;;;23.80;98.20;;;;;;5023540;28;20642;-76
2022/05/26 12:18:50;;;;;;;2.60;1.70;;;24.00;97.90;;;;;;5011934;28;20222;-76
2022/05/26 12:21:34;;;;;;;4.30;4.00;;;24.20;96.80;;;;;;5028723;28;20204;-77
2022/05/26 12:24:42;;;;;;;4.37;4.00;;;24.50;97.50;;;;;;5019272;28;20720;-77
2022/05/26 12:27:09;;;;;;;4.27;3.97;;;24.60;97.40;;;;;;5015872;28;20207;-76
2022/05/26 12:29:59;;;;;;;4.37;4.00;;;24.50;96.90;;;;;;5017541;28;20202;-77
2022/05/26 12:32:28;;;;;;;4.27;4.03;;;24.50;97.30;;;;;;5017370;28;20193;-76
2022/05/26 12:35:10;;;;;;;2.57;1.50;;;24.30;96.90;;;;;;5022060;28;20292;-76
2022/05/26 12:37:50;;;;;;;4.00;3.80;;;24.30;96.80;;;;;;5020122;28;20200;-77
2022/05/26 12:40:44;;;;;;;4.43;4.17;;;24.00;97.40;;;;;;5021619;28;20208;-76
2022/05/26 12:43:35;;;;;;;2.20;2.00;;;23.80;97.30;;;;;;5023323;28;20696;-77
2022/05/26 12:46:20;;;;;;;1.60;1.50;;;23.40;97.60;;;;;;5017442;28;20193;-77
2022/05/26 12:49:04;;;;;;;2.40;2.17;;;23.50;98.80;;;;;;5017465;28;20219;-77
2022/05/26 12:51:36;;;;;;;1.93;1.40;;;23.50;98.40;;;;;;5021244;28;20661;-76
2022/05/26 12:54:07;;;;;;;3.50;3.30;;;23.60;97.90;;;;;;5020224;28;20466;-76
2022/05/26 12:56:44;;;;;;;1.50;1.40;;;23.60;97.50;;;;;;5015946;28;20199;-76
2022/05/26 12:59:14;;;;;;;1.50;1.40;;;23.50;98.20;;;;;;5014847;28;20200;-76
2022/05/26 13:01:42;;;;;;;2.23;2.10;;;23.50;98.20;;;;;;5019502;28;20196;-76
2022/05/26 13:04:11;;;;;;;2.13;2.03;;;23.30;99.30;;;;;;5018101;28;20234;-77
2022/05/26 13:06:43;;;;;;;1.97;1.87;;;23.20;98.60;;;;;;5010901;28;20234;-77
2022/05/26 13:09:15;;;;;;;3.23;3.00;;;23.10;98.60;;;;;;5018866;28;20196;-76
2022/05/26 13:11:46;;;;;;;3.60;3.40;;;23.10;98.90;;;;;;5016843;28;20206;-75
2022/05/26 13:14:28;;;;;;;2.90;2.70;;;23.10;98.20;;;;;;5020037;28;20227;-76
2022/05/26 13:17:00;;;;;;;4.47;4.07;;;23.10;98.00;;;;;;5019016;28;20195;-77
2022/05/26 13:19:27;;;;;;;2.90;2.70;;;23.00;98.50;;;;;;5014168;28;20689;-76
2022/05/26 13:21:57;;;;;;;3.47;3.27;;;22.70;98.00;;;;;;5021810;28;20200;-77
2022/05/26 13:24:27;;;;;;;5.20;4.80;;;22.60;98.40;;;;;;5017922;28;20218;-77
2022/05/26 13:26:57;;;;;;;4.17;3.87;;;22.50;98.70;;;;;;5020012;28;20202;-76
2022/05/26 13:29:24;;;;;;;2.50;2.30;;;22.60;99.00;;;;;;5020379;28;20207;-76
2022/05/26 13:34:46;;;;;;;4.50;4.10;;;22.60;98.60;;;;;;5017836;28;20237;-76
2022/05/26 13:37:22;;;;;;;4.53;4.27;;;22.70;99.20;;;;;;5019803;28;20579;-76
2022/05/26 13:40:09;;;;;;;4.40;4.10;;;22.80;99.00;;;;;;5016020;28;20569;-75
2022/05/26 13:42:37;;;;;;;5.30;4.90;;;23.00;98.40;;;;;;5017740;28;20204;-76
2022/05/26 13:45:08;;;;;;;4.90;4.60;;;23.10;98.30;;;;;;5017144;28;20220;-76
2022/05/26 13:47:35;;;;;;;5.07;4.70;;;23.20;98.20;;;;;;5020654;28;20199;-75
2022/05/26 13:50:05;;;;;;;4.57;4.17;;;23.30;97.70;;;;;;5018328;28;20203;-77
2022/05/26 13:52:36;;;;;;;5.40;5.00;;;23.30;98.10;;;;;;5019475;28;20193;-76